createdAt,value
2023-07-18T00:00:13.380Z,28.08
2023-07-18T00:01:13.577Z,28.08
2023-07-18T00:02:13.608Z,28.07
2023-07-18T00:03:13.574Z,28.08
2023-07-18T00:04:13.697Z,28.07
2023-07-18T00:05:13.804Z,28.07
2023-07-18T00:06:13.625Z,28.07
2023-07-18T00:07:13.628Z,28.07
2023-07-18T00:08:13.624Z,28.06
2023-07-18T00:09:13.635Z,28.07
2023-07-18T00:10:13.638Z,28.06
2023-07-18T00:11:13.620Z,28.06
2023-07-18T00:12:13.707Z,28.06
2023-07-18T00:13:13.721Z,28.06
2023-07-18T00:14:13.810Z,28.06
2023-07-18T00:15:13.851Z,28.06
2023-07-18T00:16:14.032Z,28.05
2023-07-18T00:17:13.985Z,28.05
2023-07-18T00:18:14.072Z,28.04
2023-07-18T00:19:14.124Z,28.04
2023-07-18T00:20:14.172Z,28.03
2023-07-18T00:21:14.184Z,28.02
2023-07-18T00:22:14.177Z,28.03
2023-07-18T00:23:14.224Z,28.02
2023-07-18T00:24:14.169Z,28.02
2023-07-18T00:25:14.285Z,28.02
2023-07-18T00:26:14.158Z,28.01
2023-07-18T00:27:14.146Z,28.00
2023-07-18T00:28:14.160Z,27.99
2023-07-18T00:29:14.134Z,27.99
2023-07-18T00:30:14.155Z,27.99
2023-07-18T00:31:14.184Z,27.99
2023-07-18T00:32:14.225Z,27.98
2023-07-18T00:33:14.211Z,27.97
2023-07-18T00:34:14.251Z,27.97
2023-07-18T00:35:14.293Z,27.96
2023-07-18T00:36:14.285Z,27.97
2023-07-18T00:37:14.288Z,27.96
2023-07-18T00:38:14.265Z,27.96
2023-07-18T00:39:14.260Z,27.96
2023-07-18T00:40:14.258Z,27.96
2023-07-18T00:41:14.277Z,27.96
2023-07-18T00:42:14.237Z,27.96
2023-07-18T00:43:14.225Z,27.96
2023-07-18T00:44:14.240Z,27.95
2023-07-18T00:45:14.238Z,27.96
2023-07-18T00:46:14.229Z,27.96
2023-07-18T00:47:14.201Z,27.96
2023-07-18T00:48:14.203Z,27.96
2023-07-18T00:49:14.202Z,27.96
2023-07-18T00:50:14.194Z,27.96
2023-07-18T00:51:14.172Z,27.96
2023-07-18T00:52:14.175Z,27.95
2023-07-18T00:53:14.147Z,27.95
2023-07-18T00:54:14.151Z,27.96
2023-07-18T00:55:14.161Z,27.95
2023-07-18T00:56:14.147Z,27.95
2023-07-18T00:57:14.162Z,27.96
2023-07-18T00:58:14.146Z,27.95
2023-07-18T00:59:14.122Z,27.95
2023-07-18T01:00:14.123Z,27.95
2023-07-18T01:01:14.129Z,27.94
2023-07-18T01:02:14.130Z,27.95
2023-07-18T01:03:14.133Z,27.95
2023-07-18T01:04:14.077Z,27.95
2023-07-18T01:05:14.113Z,27.94
2023-07-18T01:06:14.071Z,27.95
2023-07-18T01:07:14.062Z,27.94
2023-07-18T01:08:14.049Z,27.93
2023-07-18T01:09:14.039Z,27.93
2023-07-18T01:10:14.051Z,27.94
2023-07-18T01:11:14.035Z,27.93
2023-07-18T01:12:14.032Z,27.93
2023-07-18T01:13:14.023Z,27.93
2023-07-18T01:14:14.015Z,27.93
2023-07-18T01:15:14.365Z,27.93
2023-07-18T01:16:14.029Z,27.93
2023-07-18T01:17:14.002Z,27.92
2023-07-18T01:18:14.004Z,27.92
2023-07-18T01:19:13.983Z,27.93
2023-07-18T01:20:13.984Z,27.93
2023-07-18T01:21:13.968Z,27.92
2023-07-18T01:22:13.952Z,27.92
2023-07-18T01:23:14.014Z,27.91
2023-07-18T01:24:13.944Z,27.91
2023-07-18T01:25:13.946Z,27.91
2023-07-18T01:26:13.938Z,27.91
2023-07-18T01:27:13.934Z,27.91
2023-07-18T01:28:13.979Z,27.91
2023-07-18T01:29:14.033Z,27.91
2023-07-18T01:30:14.077Z,27.91
2023-07-18T01:31:14.164Z,27.91
2023-07-18T01:32:14.126Z,27.90
2023-07-18T01:33:14.180Z,27.90
2023-07-18T01:34:14.241Z,27.90
2023-07-18T01:35:14.236Z,27.90
2023-07-18T01:36:14.233Z,27.90
2023-07-18T01:37:14.284Z,27.90
2023-07-18T01:38:14.284Z,27.90
2023-07-18T01:39:14.370Z,27.89
2023-07-18T01:40:14.391Z,27.89
2023-07-18T01:41:14.402Z,27.90
2023-07-18T01:42:14.421Z,27.89
2023-07-18T01:43:14.445Z,27.90
2023-07-18T01:44:14.486Z,27.89
2023-07-18T01:45:14.530Z,27.89
2023-07-18T01:46:14.578Z,27.89
2023-07-18T01:47:14.761Z,27.89
2023-07-18T01:48:14.695Z,27.89
2023-07-18T01:49:14.730Z,27.89
2023-07-18T01:50:14.815Z,27.88
2023-07-18T01:51:14.773Z,27.88
2023-07-18T01:52:14.805Z,27.88
2023-07-18T01:53:14.843Z,27.88
2023-07-18T01:54:14.846Z,27.88
2023-07-18T01:55:14.866Z,27.88
2023-07-18T01:56:14.841Z,27.88
2023-07-18T01:57:14.847Z,27.88
2023-07-18T01:58:14.848Z,27.88
2023-07-18T01:59:14.863Z,27.87
2023-07-18T02:00:15.040Z,27.87
2023-07-18T02:01:14.940Z,27.87
2023-07-18T02:02:14.862Z,27.87
2023-07-18T02:03:14.849Z,27.87
2023-07-18T02:04:14.820Z,27.86
2023-07-18T02:05:14.833Z,27.87
2023-07-18T02:06:14.831Z,27.87
2023-07-18T02:07:14.827Z,27.86
2023-07-18T02:08:14.826Z,27.86
2023-07-18T02:09:14.829Z,27.85
2023-07-18T02:10:14.818Z,27.85
2023-07-18T02:11:14.815Z,27.85
2023-07-18T02:12:14.817Z,27.85
2023-07-18T02:13:14.840Z,27.85
2023-07-18T02:14:14.884Z,27.84
2023-07-18T02:15:14.923Z,27.83
2023-07-18T02:16:14.949Z,27.83
2023-07-18T02:17:15.013Z,27.83
2023-07-18T02:18:15.025Z,27.82
2023-07-18T02:19:15.030Z,27.81
2023-07-18T02:20:15.072Z,27.80
2023-07-18T02:21:15.027Z,27.80
2023-07-18T02:22:15.024Z,27.80
2023-07-18T02:23:15.091Z,27.79
2023-07-18T02:24:15.036Z,27.78
2023-07-18T02:25:15.045Z,27.78
2023-07-18T02:26:15.044Z,27.78
2023-07-18T02:27:15.039Z,27.78
2023-07-18T02:28:15.031Z,27.76
2023-07-18T02:29:15.071Z,27.76
2023-07-18T02:30:15.044Z,27.75
2023-07-18T02:31:15.074Z,27.74
2023-07-18T02:32:15.018Z,27.74
2023-07-18T02:33:15.056Z,27.73
2023-07-18T02:34:15.018Z,27.72
2023-07-18T02:35:15.017Z,27.72
2023-07-18T02:36:15.018Z,27.72
2023-07-18T02:37:15.017Z,27.72
2023-07-18T02:38:15.016Z,27.72
2023-07-18T02:39:14.999Z,27.71
2023-07-18T02:40:14.995Z,27.71
2023-07-18T02:41:14.978Z,27.70
2023-07-18T02:42:15.012Z,27.70
2023-07-18T02:43:14.978Z,27.69
2023-07-18T02:44:14.989Z,27.69
2023-07-18T02:45:14.993Z,27.69
2023-07-18T02:46:15.560Z,27.69
2023-07-18T02:47:14.982Z,27.68
2023-07-18T02:48:14.982Z,27.67
2023-07-18T02:49:14.971Z,27.67
2023-07-18T02:50:14.975Z,27.67
2023-07-18T02:51:14.974Z,27.65
2023-07-18T02:52:14.978Z,27.65
2023-07-18T02:53:14.974Z,27.64
2023-07-18T02:54:14.965Z,27.64
2023-07-18T02:55:14.966Z,27.64
2023-07-18T02:56:14.948Z,27.64
2023-07-18T02:57:15.043Z,27.64
2023-07-18T02:58:14.955Z,27.64
2023-07-18T02:59:14.960Z,27.63
2023-07-18T03:00:14.953Z,27.61
2023-07-18T03:01:14.958Z,27.60
2023-07-18T03:02:14.944Z,27.59
2023-07-18T03:03:14.979Z,27.55
2023-07-18T03:04:14.925Z,27.51
2023-07-18T03:05:14.926Z,27.48
2023-07-18T03:06:14.892Z,27.44
2023-07-18T03:07:14.954Z,27.41
2023-07-18T03:08:14.885Z,27.35
2023-07-18T03:09:14.887Z,27.33
2023-07-18T03:10:14.886Z,27.31
2023-07-18T03:11:14.906Z,27.32
2023-07-18T03:12:14.874Z,27.35
2023-07-18T03:13:14.882Z,27.38
2023-07-18T03:14:14.882Z,27.43
2023-07-18T03:15:14.876Z,27.50
2023-07-18T03:16:14.928Z,27.56
2023-07-18T03:17:14.894Z,27.61
2023-07-18T03:18:14.853Z,27.66
2023-07-18T03:19:14.850Z,27.62
2023-07-18T03:20:14.854Z,27.55
2023-07-18T03:21:14.833Z,27.50
2023-07-18T03:22:14.820Z,27.44
2023-07-18T03:23:14.877Z,27.41
2023-07-18T03:24:14.829Z,27.36
2023-07-18T03:25:14.833Z,27.33
2023-07-18T03:26:14.825Z,27.32
2023-07-18T03:27:14.834Z,27.33
2023-07-18T03:28:14.828Z,27.31
2023-07-18T03:29:14.829Z,27.32
2023-07-18T03:30:14.856Z,27.33
2023-07-18T03:31:14.866Z,27.32
2023-07-18T03:32:14.912Z,27.33
2023-07-18T03:33:14.839Z,27.32
2023-07-18T03:34:14.844Z,27.31
2023-07-18T03:35:14.838Z,27.30
2023-07-18T03:36:14.843Z,27.29
2023-07-18T03:37:14.853Z,27.31
2023-07-18T03:38:14.894Z,27.31
2023-07-18T03:39:14.949Z,27.32
2023-07-18T03:40:14.876Z,27.32
2023-07-18T03:41:14.871Z,27.32
2023-07-18T03:42:14.862Z,27.30
2023-07-18T03:43:14.867Z,27.30
2023-07-18T03:44:14.859Z,27.30
2023-07-18T03:45:14.891Z,27.28
2023-07-18T03:46:14.955Z,27.27
2023-07-18T03:47:20.640Z,27.26
2023-07-18T03:48:15.982Z,27.25
2023-07-18T03:49:14.933Z,27.24
2023-07-18T03:50:14.960Z,27.23
2023-07-18T03:51:14.927Z,27.23
2023-07-18T03:52:14.944Z,27.22
2023-07-18T03:53:14.946Z,27.22
2023-07-18T03:54:14.938Z,27.22
2023-07-18T03:55:14.966Z,27.20
2023-07-18T03:56:14.947Z,27.18
2023-07-18T03:57:14.965Z,27.18
2023-07-18T03:58:14.969Z,27.18
2023-07-18T03:59:14.983Z,27.17
2023-07-18T04:00:15.399Z,27.18
2023-07-18T04:01:15.074Z,27.15
2023-07-18T04:02:15.002Z,27.15
2023-07-18T04:03:15.049Z,27.15
2023-07-18T04:04:15.040Z,27.15
2023-07-18T04:05:15.040Z,27.16
2023-07-18T04:06:15.031Z,27.16
2023-07-18T04:07:15.010Z,27.15
2023-07-18T04:08:15.027Z,27.14
2023-07-18T04:09:15.045Z,27.13
2023-07-18T04:10:15.029Z,27.14
2023-07-18T04:11:15.046Z,27.15
2023-07-18T04:12:15.033Z,27.15
2023-07-18T04:13:15.022Z,27.14
2023-07-18T04:14:15.037Z,27.13
2023-07-18T04:15:15.053Z,27.13
2023-07-18T04:16:15.085Z,27.12
2023-07-18T04:17:15.041Z,27.13
2023-07-18T04:18:15.100Z,27.11
2023-07-18T04:19:15.071Z,27.09
2023-07-18T04:20:15.091Z,27.07
2023-07-18T04:21:15.077Z,27.06
2023-07-18T04:22:15.070Z,27.05
2023-07-18T04:23:15.147Z,27.05
2023-07-18T04:24:15.123Z,27.05
2023-07-18T04:25:15.192Z,27.05
2023-07-18T04:26:15.213Z,27.04
2023-07-18T04:27:15.251Z,27.04
2023-07-18T04:28:15.289Z,27.03
2023-07-18T04:29:15.339Z,27.03
2023-07-18T04:30:15.397Z,27.03
2023-07-18T04:31:17.789Z,27.02
2023-07-18T04:32:15.462Z,27.01
2023-07-18T04:33:15.448Z,27.02
2023-07-18T04:34:15.431Z,27.02
2023-07-18T04:35:15.505Z,27.02
2023-07-18T04:36:15.429Z,27.00
2023-07-18T04:37:15.424Z,27.00
2023-07-18T04:38:15.442Z,26.99
2023-07-18T04:39:15.456Z,27.00
2023-07-18T04:40:15.470Z,26.99
2023-07-18T04:41:15.466Z,26.99
2023-07-18T04:42:15.465Z,26.98
2023-07-18T04:43:15.480Z,26.99
2023-07-18T04:44:15.485Z,27.00
2023-07-18T04:45:15.501Z,26.99
2023-07-18T04:46:15.522Z,26.99
2023-07-18T04:47:15.580Z,26.97
2023-07-18T04:48:15.591Z,26.96
2023-07-18T04:49:15.537Z,26.95
2023-07-18T04:50:15.549Z,26.95
2023-07-18T04:51:15.558Z,26.96
2023-07-18T04:52:15.573Z,26.96
2023-07-18T04:53:15.569Z,26.95
2023-07-18T04:54:15.588Z,26.95
2023-07-18T04:55:15.587Z,26.96
2023-07-18T04:56:15.586Z,26.95
2023-07-18T04:57:15.591Z,26.95
2023-07-18T04:58:15.596Z,26.96
2023-07-18T04:59:15.601Z,26.95
2023-07-18T05:00:15.628Z,26.95
2023-07-18T05:01:15.712Z,26.93
2023-07-18T05:02:15.636Z,26.94
2023-07-18T05:03:15.843Z,26.95
2023-07-18T05:04:15.708Z,26.95
2023-07-18T05:05:15.680Z,26.95
2023-07-18T05:06:15.677Z,26.95
2023-07-18T05:07:15.669Z,26.92
2023-07-18T05:08:15.676Z,26.92
2023-07-18T05:09:15.730Z,26.92
2023-07-18T05:10:15.780Z,26.93
2023-07-18T05:11:15.858Z,26.93
2023-07-18T05:12:15.927Z,26.93
2023-07-18T05:13:15.962Z,26.94
2023-07-18T05:14:15.999Z,26.93
2023-07-18T05:15:16.064Z,26.92
2023-07-18T05:16:16.143Z,26.92
2023-07-18T05:17:16.169Z,26.95
2023-07-18T05:18:16.232Z,26.94
2023-07-18T05:19:16.274Z,26.92
2023-07-18T05:20:16.345Z,26.92
2023-07-18T05:21:16.461Z,26.91
2023-07-18T05:22:16.446Z,26.91
2023-07-18T05:23:16.534Z,26.93
2023-07-18T05:24:16.563Z,26.92
2023-07-18T05:25:16.592Z,26.92
2023-07-18T05:26:16.691Z,26.92
2023-07-18T05:27:16.693Z,26.93
2023-07-18T05:28:16.755Z,26.93
2023-07-18T05:29:16.814Z,26.94
2023-07-18T05:30:16.924Z,26.95
2023-07-18T05:31:17.270Z,26.94
2023-07-18T05:32:16.975Z,26.93
2023-07-18T05:33:17.034Z,26.94
2023-07-18T05:34:17.084Z,26.93
2023-07-18T05:35:17.218Z,26.92
2023-07-18T05:36:17.201Z,26.93
2023-07-18T05:37:17.261Z,26.92
2023-07-18T05:38:17.318Z,26.94
2023-07-18T05:39:17.365Z,26.95
2023-07-18T05:40:21.759Z,26.95
2023-07-18T05:41:18.763Z,26.95
2023-07-18T05:42:17.419Z,26.96
2023-07-18T05:43:17.426Z,26.96
2023-07-18T05:44:17.419Z,26.95
2023-07-18T05:45:17.436Z,26.96
2023-07-18T05:46:17.500Z,26.95
2023-07-18T05:47:17.456Z,26.97
2023-07-18T05:48:17.431Z,26.97
2023-07-18T05:49:17.450Z,26.98
2023-07-18T05:50:17.458Z,26.98
2023-07-18T05:51:17.809Z,26.99
2023-07-18T05:52:17.472Z,27.00
2023-07-18T05:53:17.522Z,26.99
2023-07-18T05:54:17.562Z,26.99
2023-07-18T05:55:17.741Z,26.99
2023-07-18T05:56:17.666Z,26.99
2023-07-18T05:57:17.711Z,27.00
2023-07-18T05:58:17.788Z,27.01
2023-07-18T05:59:17.807Z,27.00
2023-07-18T06:00:17.877Z,27.00
2023-07-18T06:01:18.266Z,26.99
2023-07-18T06:02:18.017Z,27.00
2023-07-18T06:03:18.128Z,27.00
2023-07-18T06:04:18.195Z,27.00
2023-07-18T06:05:18.139Z,27.00
2023-07-18T06:06:18.185Z,27.01
2023-07-18T06:07:18.253Z,27.01
2023-07-18T06:08:18.303Z,27.01
2023-07-18T06:09:18.336Z,27.01
2023-07-18T06:10:18.420Z,27.02
2023-07-18T06:11:18.559Z,27.02
2023-07-18T06:12:18.519Z,27.02
2023-07-18T06:13:18.530Z,27.03
2023-07-18T06:14:18.580Z,27.03
2023-07-18T06:15:18.683Z,27.05
2023-07-18T06:16:18.700Z,27.13
2023-07-18T06:17:18.765Z,27.14
2023-07-18T06:18:21.455Z,27.12
2023-07-18T06:19:18.767Z,27.14
2023-07-18T06:20:18.781Z,27.15
2023-07-18T06:21:19.231Z,27.23
2023-07-18T06:22:18.751Z,27.22
2023-07-18T06:23:18.770Z,27.23
2023-07-18T06:24:20.032Z,27.27
2023-07-18T06:25:18.807Z,27.34
2023-07-18T06:26:18.749Z,27.41
2023-07-18T06:27:18.800Z,27.43
2023-07-18T06:28:18.783Z,27.39
2023-07-18T06:29:18.759Z,27.36
2023-07-18T06:30:18.800Z,27.36
2023-07-18T06:31:19.338Z,27.36
2023-07-18T06:32:18.809Z,27.40
2023-07-18T06:33:18.809Z,27.41
2023-07-18T06:34:19.056Z,27.38
2023-07-18T06:35:23.755Z,27.42
2023-07-18T06:36:19.855Z,27.49
2023-07-18T06:37:18.833Z,27.56
2023-07-18T06:38:18.858Z,27.63
2023-07-18T06:39:18.840Z,27.64
2023-07-18T06:40:18.859Z,27.59
2023-07-18T06:41:19.091Z,27.61
2023-07-18T06:42:18.845Z,27.61
2023-07-18T06:43:18.840Z,27.61
2023-07-18T06:44:18.841Z,27.63
2023-07-18T06:45:18.860Z,27.62
2023-07-18T06:46:18.878Z,27.61
2023-07-18T06:47:18.925Z,27.59
2023-07-18T06:48:18.867Z,27.58
2023-07-18T06:49:18.849Z,27.63
2023-07-18T06:50:18.858Z,27.67
2023-07-18T06:51:19.215Z,27.71
2023-07-18T06:52:18.901Z,27.71
2023-07-18T06:53:18.864Z,27.71
2023-07-18T06:54:18.883Z,27.69
2023-07-18T06:55:18.904Z,27.66
2023-07-18T06:56:18.882Z,27.67
2023-07-18T06:57:18.898Z,27.66
2023-07-18T06:58:18.887Z,27.70
2023-07-18T06:59:18.902Z,27.75
2023-07-18T07:00:18.945Z,27.77
2023-07-18T07:01:19.240Z,27.79
2023-07-18T07:02:18.919Z,27.82
2023-07-18T07:03:19.138Z,27.85
2023-07-18T07:04:18.914Z,27.89
2023-07-18T07:05:18.915Z,27.92
2023-07-18T07:06:18.913Z,27.95
2023-07-18T07:07:18.950Z,27.97
2023-07-18T07:08:18.920Z,27.99
2023-07-18T07:09:18.896Z,28.01
2023-07-18T07:10:18.924Z,28.04
2023-07-18T07:11:19.328Z,28.06
2023-07-18T07:12:34.632Z,28.09
2023-07-18T07:13:20.053Z,28.12
2023-07-18T07:14:19.030Z,28.14
2023-07-18T07:15:19.028Z,28.15
2023-07-18T07:16:19.084Z,28.18
2023-07-18T07:17:19.009Z,28.22
2023-07-18T07:18:19.006Z,28.25
2023-07-18T07:19:18.979Z,28.28
2023-07-18T07:20:18.983Z,28.30
2023-07-18T07:21:19.463Z,28.35
2023-07-18T07:22:19.006Z,28.37
2023-07-18T07:23:19.014Z,28.40
2023-07-18T07:24:19.009Z,28.42
2023-07-18T07:25:19.018Z,28.45
2023-07-18T07:26:18.983Z,28.48
2023-07-18T07:27:18.983Z,28.48
2023-07-18T07:28:18.962Z,28.49
2023-07-18T07:29:19.649Z,28.50
2023-07-18T07:30:18.941Z,28.50
2023-07-18T07:31:19.537Z,28.52
2023-07-18T07:32:18.912Z,28.54
2023-07-18T07:33:19.498Z,28.55
2023-07-18T07:34:18.912Z,28.56
2023-07-18T07:35:18.964Z,28.58
2023-07-18T07:36:18.933Z,28.60
2023-07-18T07:37:18.909Z,28.62
2023-07-18T07:38:18.957Z,28.60
2023-07-18T07:39:18.902Z,28.61
2023-07-18T07:40:18.886Z,28.63
2023-07-18T07:41:19.137Z,28.65
2023-07-18T07:42:18.863Z,28.66
2023-07-18T07:43:18.845Z,28.67
2023-07-18T07:44:18.873Z,28.68
2023-07-18T07:45:18.852Z,28.69
2023-07-18T07:46:18.880Z,28.71
2023-07-18T07:47:18.880Z,28.72
2023-07-18T07:48:18.934Z,28.73
2023-07-18T07:49:18.927Z,28.74
2023-07-18T07:50:18.955Z,28.75
2023-07-18T07:51:19.884Z,28.76
2023-07-18T07:52:18.994Z,28.77
2023-07-18T07:53:19.763Z,28.79
2023-07-18T07:54:19.038Z,28.80
2023-07-18T07:55:19.209Z,28.80
2023-07-18T07:56:19.067Z,28.80
2023-07-18T07:57:19.130Z,28.82
2023-07-18T07:58:19.139Z,28.85
2023-07-18T07:59:19.142Z,28.86
2023-07-18T08:00:19.139Z,28.89
2023-07-18T08:01:19.560Z,28.90
2023-07-18T08:02:19.243Z,28.91
2023-07-18T08:03:19.182Z,28.92
2023-07-18T08:04:19.243Z,28.92
2023-07-18T08:05:19.368Z,28.94
2023-07-18T08:06:19.157Z,28.94
2023-07-18T08:07:19.119Z,28.95
2023-07-18T08:08:19.135Z,28.97
2023-07-18T08:09:19.092Z,28.98
2023-07-18T08:10:19.233Z,28.98
2023-07-18T08:11:19.208Z,28.99
2023-07-18T08:12:19.045Z,29.00
2023-07-18T08:13:19.030Z,29.00
2023-07-18T08:14:19.028Z,29.01
2023-07-18T08:15:19.066Z,29.01
2023-07-18T08:16:19.034Z,29.01
2023-07-18T08:17:19.103Z,29.02
2023-07-18T08:18:18.974Z,29.02
2023-07-18T08:19:18.957Z,29.03
2023-07-18T08:20:18.944Z,29.03
2023-07-18T08:21:19.071Z,29.03
2023-07-18T08:22:18.892Z,29.05
2023-07-18T08:23:18.976Z,29.04
2023-07-18T08:24:18.879Z,29.06
2023-07-18T08:25:18.863Z,29.07
2023-07-18T08:26:19.272Z,29.08
2023-07-18T08:27:18.860Z,29.08
2023-07-18T08:28:18.850Z,29.08
2023-07-18T08:29:18.996Z,29.09
2023-07-18T08:30:18.818Z,29.09
2023-07-18T08:31:19.039Z,29.10
2023-07-18T08:32:18.837Z,29.11
2023-07-18T08:33:18.792Z,29.12
2023-07-18T08:34:18.756Z,29.12
2023-07-18T08:35:18.757Z,29.13
2023-07-18T08:36:18.723Z,29.14
2023-07-18T08:37:18.699Z,29.15
2023-07-18T08:38:18.713Z,29.15
2023-07-18T08:39:18.699Z,29.16
2023-07-18T08:40:18.679Z,29.16
2023-07-18T08:41:18.928Z,29.17
2023-07-18T08:42:18.677Z,29.17
2023-07-18T08:43:18.644Z,29.18
2023-07-18T08:44:18.646Z,29.19
2023-07-18T08:45:18.713Z,29.19
2023-07-18T08:46:18.754Z,29.20
2023-07-18T08:47:18.626Z,29.21
2023-07-18T08:48:18.644Z,29.22
2023-07-18T08:49:18.740Z,29.24
2023-07-18T08:50:18.580Z,29.23
2023-07-18T08:51:19.451Z,29.24
2023-07-18T08:52:18.555Z,29.25
2023-07-18T08:53:18.532Z,29.26
2023-07-18T08:54:18.527Z,29.24
2023-07-18T08:55:18.558Z,29.26
2023-07-18T08:56:18.762Z,29.27
2023-07-18T08:57:18.465Z,29.28
2023-07-18T08:58:18.464Z,29.29
2023-07-18T08:59:18.453Z,29.28
2023-07-18T09:00:18.430Z,29.29
2023-07-18T09:01:18.851Z,29.30
2023-07-18T09:02:18.415Z,29.30
2023-07-18T09:03:18.370Z,29.31
2023-07-18T09:04:18.414Z,29.31
2023-07-18T09:05:18.364Z,29.32
2023-07-18T09:06:18.338Z,29.33
2023-07-18T09:07:18.322Z,29.33
2023-07-18T09:08:18.363Z,29.34
2023-07-18T09:09:18.362Z,29.35
2023-07-18T09:10:18.424Z,29.35
2023-07-18T09:11:18.738Z,29.36
2023-07-18T09:12:18.392Z,29.37
2023-07-18T09:13:18.388Z,29.38
2023-07-18T09:14:18.422Z,29.38
2023-07-18T09:15:18.402Z,29.38
2023-07-18T09:16:18.434Z,29.37
2023-07-18T09:17:18.501Z,29.38
2023-07-18T09:18:18.360Z,29.41
2023-07-18T09:19:18.341Z,29.42
2023-07-18T09:20:18.435Z,29.44
2023-07-18T09:21:18.621Z,29.46
2023-07-18T09:22:18.431Z,29.46
2023-07-18T09:23:18.401Z,29.48
2023-07-18T09:24:18.381Z,29.50
2023-07-18T09:25:18.365Z,29.51
2023-07-18T09:26:18.419Z,29.53
2023-07-18T09:27:18.470Z,29.55
2023-07-18T09:28:18.545Z,29.56
2023-07-18T09:29:18.519Z,29.56
2023-07-18T09:30:18.574Z,29.57
2023-07-18T09:31:18.888Z,29.59
2023-07-18T09:32:19.399Z,29.60
2023-07-18T09:33:18.646Z,29.61
2023-07-18T09:34:18.682Z,29.61
2023-07-18T09:35:18.750Z,29.63
2023-07-18T09:36:18.784Z,29.63
2023-07-18T09:37:18.796Z,29.63
2023-07-18T09:38:18.828Z,29.65
2023-07-18T09:39:18.865Z,29.66
2023-07-18T09:40:19.002Z,29.66
2023-07-18T09:41:21.187Z,29.66
2023-07-18T09:42:20.158Z,29.67
2023-07-18T09:43:18.817Z,29.68
2023-07-18T09:44:31.313Z,29.69
2023-07-18T09:45:19.742Z,29.68
2023-07-18T09:46:18.906Z,29.69
2023-07-18T09:47:18.733Z,29.70
2023-07-18T09:48:18.677Z,29.70
2023-07-18T09:49:18.663Z,29.71
2023-07-18T09:50:19.242Z,29.73
2023-07-18T09:51:18.843Z,29.73
2023-07-18T09:52:18.570Z,29.73
2023-07-18T09:53:18.542Z,29.74
2023-07-18T09:54:18.532Z,29.74
2023-07-18T09:55:18.515Z,29.74
2023-07-18T09:56:18.534Z,29.74
2023-07-18T09:57:18.549Z,29.74
2023-07-18T09:58:18.591Z,29.75
2023-07-18T09:59:18.690Z,29.75
2023-07-18T10:00:18.693Z,29.76
2023-07-18T10:01:19.002Z,29.76
2023-07-18T10:02:18.758Z,29.76
2023-07-18T10:03:18.828Z,29.78
2023-07-18T10:04:18.717Z,29.76
2023-07-18T10:05:18.701Z,29.76
2023-07-18T10:06:18.748Z,29.75
2023-07-18T10:07:18.690Z,29.76
2023-07-18T10:08:18.737Z,29.77
2023-07-18T10:09:18.634Z,29.78
2023-07-18T10:10:18.613Z,29.78
2023-07-18T10:11:18.959Z,29.79
2023-07-18T10:12:18.612Z,29.79
2023-07-18T10:13:19.317Z,29.79
2023-07-18T10:14:18.645Z,29.79
2023-07-18T10:15:18.667Z,29.79
2023-07-18T10:16:18.748Z,29.79
2023-07-18T10:17:18.816Z,29.79
2023-07-18T10:18:18.887Z,29.78
2023-07-18T10:19:18.818Z,29.78
2023-07-18T10:20:18.860Z,29.77
2023-07-18T10:21:19.168Z,29.78
2023-07-18T10:22:18.928Z,29.77
2023-07-18T10:23:18.949Z,29.74
2023-07-18T10:24:18.996Z,29.73
2023-07-18T10:25:19.062Z,29.73
2023-07-18T10:26:19.078Z,29.73
2023-07-18T10:27:19.112Z,29.71
2023-07-18T10:28:19.075Z,29.71
2023-07-18T10:29:19.074Z,29.71
2023-07-18T10:30:19.041Z,29.69
2023-07-18T10:31:19.286Z,29.68
2023-07-18T10:32:19.015Z,29.67
2023-07-18T10:33:18.980Z,29.67
2023-07-18T10:34:18.950Z,29.67
2023-07-18T10:35:18.945Z,29.66
2023-07-18T10:36:18.916Z,29.66
2023-07-18T10:37:18.939Z,29.66
2023-07-18T10:38:18.952Z,29.65
2023-07-18T10:39:18.986Z,29.65
2023-07-18T10:40:19.005Z,29.66
2023-07-18T10:41:19.300Z,29.65
2023-07-18T10:42:19.054Z,29.64
2023-07-18T10:43:19.066Z,29.64
2023-07-18T10:44:19.063Z,29.65
2023-07-18T10:45:19.759Z,29.65
2023-07-18T10:46:19.180Z,29.65
2023-07-18T10:47:19.164Z,29.64
2023-07-18T10:48:19.234Z,29.65
2023-07-18T10:49:19.188Z,29.64
2023-07-18T10:50:20.440Z,29.64
2023-07-18T10:51:19.266Z,29.65
2023-07-18T10:52:19.092Z,29.64
2023-07-18T10:53:19.091Z,29.64
2023-07-18T10:54:19.051Z,29.63
2023-07-18T10:55:19.022Z,29.63
2023-07-18T10:56:18.993Z,29.63
2023-07-18T10:57:18.984Z,29.62
2023-07-18T10:58:18.995Z,29.62
2023-07-18T10:59:18.922Z,29.62
2023-07-18T11:00:18.897Z,29.61
2023-07-18T11:01:19.478Z,29.61
2023-07-18T11:02:19.822Z,29.59
2023-07-18T11:03:18.801Z,29.61
2023-07-18T11:04:18.966Z,29.60
2023-07-18T11:05:18.732Z,29.61
2023-07-18T11:06:18.697Z,29.60
2023-07-18T11:07:18.700Z,29.61
2023-07-18T11:08:18.667Z,29.62
2023-07-18T11:09:20.162Z,29.61
2023-07-18T11:10:18.645Z,29.61
2023-07-18T11:11:19.001Z,29.61
2023-07-18T11:12:18.558Z,29.60
2023-07-18T11:13:18.568Z,29.60
2023-07-18T11:14:18.511Z,29.61
2023-07-18T11:15:18.476Z,29.61
2023-07-18T11:16:18.468Z,29.61
2023-07-18T11:17:18.474Z,29.61
2023-07-18T11:18:18.399Z,29.60
2023-07-18T11:19:18.368Z,29.61
2023-07-18T11:20:18.392Z,29.60
2023-07-18T11:21:18.341Z,29.60
2023-07-18T11:22:18.323Z,29.61
2023-07-18T11:23:18.273Z,29.61
2023-07-18T11:24:18.255Z,29.60
2023-07-18T11:25:18.236Z,29.60
2023-07-18T11:26:18.235Z,29.59
2023-07-18T11:27:18.163Z,29.59
2023-07-18T11:28:18.134Z,29.60
2023-07-18T11:29:18.130Z,29.61
2023-07-18T11:30:18.092Z,29.61
2023-07-18T11:31:26.652Z,29.61
2023-07-18T11:32:19.064Z,29.60
2023-07-18T11:33:18.017Z,29.61
2023-07-18T11:34:17.986Z,29.61
2023-07-18T11:35:17.956Z,29.62
2023-07-18T11:36:17.953Z,29.61
2023-07-18T11:37:17.921Z,29.61
2023-07-18T11:38:17.887Z,29.62
2023-07-18T11:39:19.996Z,29.62
2023-07-18T11:40:18.061Z,29.63
2023-07-18T11:41:18.329Z,29.63
2023-07-18T11:42:18.146Z,29.63
2023-07-18T11:43:18.140Z,29.63
2023-07-18T11:44:18.182Z,29.65
2023-07-18T11:45:20.742Z,29.64
2023-07-18T11:46:18.144Z,29.64
2023-07-18T11:47:18.136Z,29.65
2023-07-18T11:48:18.142Z,29.65
2023-07-18T11:49:18.048Z,29.66
2023-07-18T11:50:18.019Z,29.67
2023-07-18T11:51:18.236Z,29.67
2023-07-18T11:52:17.981Z,29.67
2023-07-18T11:53:17.947Z,29.69
2023-07-18T11:54:17.920Z,29.70
2023-07-18T11:55:17.884Z,29.70
2023-07-18T11:56:17.853Z,29.71
2023-07-18T11:57:17.892Z,29.71
2023-07-18T11:58:17.821Z,29.73
2023-07-18T11:59:17.793Z,29.73
2023-07-18T12:00:17.783Z,29.73
2023-07-18T12:01:18.029Z,29.74
2023-07-18T12:02:17.749Z,29.74
2023-07-18T12:03:17.781Z,29.73
2023-07-18T12:04:17.827Z,29.74
2023-07-18T12:05:18.152Z,29.75
2023-07-18T12:06:18.054Z,29.74
2023-07-18T12:07:17.790Z,29.75
2023-07-18T12:08:17.849Z,29.75
2023-07-18T12:09:17.842Z,29.75
2023-07-18T12:10:17.876Z,29.76
2023-07-18T12:11:17.916Z,29.76
2023-07-18T12:12:17.961Z,29.77
2023-07-18T12:13:18.018Z,29.76
2023-07-18T12:14:18.024Z,29.75
2023-07-18T12:15:18.052Z,29.75
2023-07-18T12:16:18.096Z,29.74
2023-07-18T12:17:18.070Z,29.74
2023-07-18T12:18:18.064Z,29.75
2023-07-18T12:19:18.099Z,29.73
2023-07-18T12:20:18.139Z,29.73
2023-07-18T12:21:18.503Z,29.73
2023-07-18T12:22:18.170Z,29.73
2023-07-18T12:23:18.243Z,29.74
2023-07-18T12:24:18.246Z,29.74
2023-07-18T12:25:18.275Z,29.73
2023-07-18T12:26:18.281Z,29.73
2023-07-18T12:27:18.289Z,29.73
2023-07-18T12:28:18.318Z,29.73
2023-07-18T12:29:18.376Z,29.73
2023-07-18T12:30:18.354Z,29.73
2023-07-18T12:31:19.089Z,29.72
2023-07-18T12:32:18.498Z,29.72
2023-07-18T12:33:18.305Z,29.72
2023-07-18T12:34:18.291Z,29.70
2023-07-18T12:35:18.270Z,29.69
2023-07-18T12:36:18.415Z,29.69
2023-07-18T12:37:18.199Z,29.69
2023-07-18T12:38:18.206Z,29.69
2023-07-18T12:39:18.164Z,29.69
2023-07-18T12:40:18.266Z,29.69
2023-07-18T12:41:18.677Z,29.69
2023-07-18T12:42:18.236Z,29.69
2023-07-18T12:43:18.287Z,29.70
2023-07-18T12:44:18.329Z,29.71
2023-07-18T12:45:18.362Z,29.72
2023-07-18T12:46:18.751Z,29.72
2023-07-18T12:47:18.395Z,29.73
2023-07-18T12:48:18.638Z,29.73
2023-07-18T12:49:56.513Z,29.72
2023-07-18T12:50:19.455Z,29.73
2023-07-18T12:51:18.434Z,29.73
2023-07-18T12:52:18.404Z,29.73